createdAt,value
2024-02-05T00:02:01.950Z,1.50
2024-02-05T00:04:29.191Z,1.27
2024-02-05T00:06:56.662Z,1.58
2024-02-05T00:09:23.950Z,1.77
2024-02-05T00:11:52.440Z,2.13
2024-02-05T00:14:20.308Z,1.30
2024-02-05T00:16:47.769Z,1.55
2024-02-05T00:19:15.175Z,1.92
2024-02-05T00:21:42.913Z,1.73
2024-02-05T00:24:10.015Z,1.33
2024-02-05T00:26:37.672Z,2.20
2024-02-05T00:29:09.584Z,1.83
2024-02-05T00:31:37.257Z,1.20
2024-02-05T00:34:04.533Z,1.30
2024-02-05T00:36:31.596Z,1.92
2024-02-05T00:38:58.671Z,1.38
2024-02-05T00:41:25.799Z,2.50
2024-02-05T00:43:53.473Z,1.33
2024-02-05T00:46:27.531Z,1.75
2024-02-05T00:48:55.800Z,1.42
2024-02-05T00:51:23.048Z,2.17
2024-02-05T00:53:50.439Z,1.80
2024-02-05T00:56:18.615Z,1.73
2024-02-05T00:58:50.288Z,1.70
2024-02-05T01:01:17.863Z,1.40
2024-02-05T01:03:46.763Z,1.80
2024-02-05T01:06:14.083Z,2.10
2024-02-05T01:08:41.276Z,2.10
2024-02-05T01:11:08.315Z,1.77
2024-02-05T01:13:35.484Z,2.35
2024-02-05T01:16:05.388Z,1.55
2024-02-05T01:18:32.569Z,2.33
2024-02-05T01:21:01.097Z,1.50
2024-02-05T01:23:28.365Z,1.45
2024-02-05T01:25:55.380Z,1.70
2024-02-05T01:28:22.640Z,1.60
2024-02-05T01:30:49.929Z,2.20
2024-02-05T01:33:17.637Z,2.63
2024-02-05T01:35:45.128Z,1.60
2024-02-05T01:38:13.661Z,1.60
2024-02-05T01:40:40.666Z,1.75
2024-02-05T01:43:08.585Z,1.67
2024-02-05T01:45:36.219Z,1.73
2024-02-05T01:48:05.877Z,1.67
2024-02-05T01:50:33.569Z,1.67
2024-02-05T01:53:01.894Z,1.75
2024-02-05T01:55:30.797Z,2.08
2024-02-05T01:57:58.311Z,1.60
2024-02-05T02:00:26.919Z,1.55
2024-02-05T02:02:54.317Z,1.50
2024-02-05T02:05:22.539Z,1.70
2024-02-05T02:10:24.278Z,1.73
2024-02-05T02:12:52.801Z,1.17
2024-02-05T02:15:19.803Z,1.55
2024-02-05T02:17:50.870Z,1.48
2024-02-05T02:22:58.694Z,2.38
2024-02-05T02:25:27.518Z,1.52
2024-02-05T02:27:55.005Z,1.75
2024-02-05T02:30:23.743Z,1.50
2024-02-05T02:33:01.909Z,1.73
2024-02-05T02:35:36.165Z,1.45
2024-02-05T02:38:09.528Z,1.63
2024-02-05T02:40:40.848Z,1.40
2024-02-05T02:43:10.548Z,1.50
2024-02-05T02:45:38.063Z,1.40
2024-02-05T02:50:33.894Z,1.80
2024-02-05T02:53:00.897Z,1.52
2024-02-05T02:55:27.915Z,1.98
2024-02-05T02:57:56.543Z,1.70
2024-02-05T03:00:23.586Z,1.90
2024-02-05T03:02:50.616Z,1.80
2024-02-05T03:05:17.697Z,1.85
2024-02-05T03:07:45.122Z,1.80
2024-02-05T03:10:12.429Z,1.80
2024-02-05T03:12:39.612Z,2.60
2024-02-05T03:15:08.974Z,1.85
2024-02-05T03:17:38.446Z,1.52
2024-02-05T03:20:08.279Z,1.67
2024-02-05T03:22:35.803Z,1.60
2024-02-05T03:25:03.658Z,1.52
2024-02-05T03:27:30.699Z,2.28
2024-02-05T03:29:57.756Z,1.60
2024-02-05T03:32:26.326Z,1.15
2024-02-05T03:34:53.493Z,2.00
2024-02-05T03:37:20.896Z,1.60
2024-02-05T03:39:47.952Z,1.92
2024-02-05T03:42:15.089Z,1.67
2024-02-05T03:44:42.064Z,1.70
2024-02-05T03:47:09.341Z,1.00
2024-02-05T03:49:40.018Z,2.03
2024-02-05T03:52:07.495Z,1.60
2024-02-05T03:54:35.485Z,1.40
2024-02-05T03:57:02.485Z,1.10
2024-02-05T03:59:29.526Z,1.30
2024-02-05T04:01:56.692Z,1.23
2024-02-05T04:04:23.859Z,1.10
2024-02-05T04:06:52.274Z,1.25
2024-02-05T04:09:19.284Z,1.08
2024-02-05T04:11:46.718Z,1.20
2024-02-05T04:14:13.856Z,1.05
2024-02-05T04:16:41.312Z,1.55
2024-02-05T04:19:08.521Z,1.33
2024-02-05T04:21:35.633Z,1.70
2024-02-05T04:24:04.410Z,1.60
2024-02-05T04:26:31.402Z,1.90
2024-02-05T04:28:58.413Z,1.60
2024-02-05T04:31:25.799Z,1.67
2024-02-05T04:33:53.182Z,0.93
2024-02-05T04:36:20.394Z,1.35
2024-02-05T04:38:47.415Z,1.50
2024-02-05T04:41:15.907Z,1.75
2024-02-05T04:43:43.200Z,1.75
2024-02-05T04:46:11.986Z,1.40
2024-02-05T04:48:39.583Z,1.50
2024-02-05T04:51:11.552Z,1.50
2024-02-05T04:53:38.636Z,1.48
2024-02-05T04:56:09.143Z,1.60
2024-02-05T04:58:38.291Z,1.50
2024-02-05T05:01:06.378Z,1.77
2024-02-05T05:03:34.741Z,1.20
2024-02-05T05:06:02.254Z,1.25
2024-02-05T05:08:32.548Z,1.35
2024-02-05T05:10:59.615Z,1.67
2024-02-05T05:13:26.780Z,2.10
2024-02-05T05:15:58.155Z,1.48
2024-02-05T05:18:25.474Z,2.15
2024-02-05T05:20:52.538Z,2.28
2024-02-05T05:23:19.677Z,1.40
2024-02-05T05:25:46.684Z,3.35
2024-02-05T05:28:13.747Z,1.70
2024-02-05T05:30:41.039Z,1.67
2024-02-05T05:33:09.702Z,1.83
2024-02-05T05:35:36.858Z,1.92
2024-02-05T05:38:04.654Z,1.20
2024-02-05T05:40:31.965Z,1.42
2024-02-05T05:42:59.037Z,1.50
2024-02-05T05:45:28.385Z,2.20
2024-02-05T05:47:55.527Z,2.05
2024-02-05T05:50:24.099Z,1.67
2024-02-05T05:52:51.160Z,2.10
2024-02-05T05:55:18.540Z,1.70
2024-02-05T05:57:45.860Z,1.85
2024-02-05T06:00:14.338Z,2.10
2024-02-05T06:02:41.526Z,1.48
2024-02-05T06:05:11.227Z,1.95
2024-02-05T06:07:40.845Z,1.48
2024-02-05T06:10:09.662Z,2.08
2024-02-05T06:12:39.025Z,1.77
2024-02-05T06:15:10.645Z,2.15
2024-02-05T06:17:38.202Z,1.42
2024-02-05T06:20:07.267Z,1.73
2024-02-05T06:22:35.731Z,1.92
2024-02-05T06:25:04.752Z,2.35
2024-02-05T06:27:31.931Z,1.85
2024-02-05T06:29:59.054Z,1.85
2024-02-05T06:32:26.404Z,1.70
2024-02-05T06:34:53.522Z,1.77
2024-02-05T06:37:20.818Z,1.50
2024-02-05T06:39:48.175Z,1.80
2024-02-05T06:42:16.980Z,1.63
2024-02-05T06:44:46.426Z,2.20
2024-02-05T06:47:13.569Z,2.72
2024-02-05T06:49:40.961Z,1.80
2024-02-05T06:52:08.197Z,1.60
2024-02-05T06:54:35.227Z,1.90
2024-02-05T06:57:02.893Z,2.05
2024-02-05T06:59:31.427Z,1.70
2024-02-05T07:01:58.695Z,2.17
2024-02-05T07:04:25.931Z,1.48
2024-02-05T07:06:55.639Z,2.25
2024-02-05T07:09:23.292Z,1.67
2024-02-05T07:11:50.684Z,1.80
2024-02-05T07:14:19.140Z,2.17
2024-02-05T07:16:48.155Z,2.10
2024-02-05T07:19:15.251Z,3.03
2024-02-05T07:21:43.021Z,1.60
2024-02-05T07:24:10.280Z,1.52
2024-02-05T07:26:37.677Z,2.00
2024-02-05T07:29:04.780Z,1.63
2024-02-05T07:31:31.939Z,2.35
2024-02-05T07:34:00.605Z,1.35
2024-02-05T07:36:30.436Z,2.10
2024-02-05T07:38:58.869Z,1.58
2024-02-05T07:41:25.914Z,1.95
2024-02-05T07:43:53.452Z,1.80
2024-02-05T07:46:21.738Z,1.63
2024-02-05T07:48:48.989Z,2.00
2024-02-05T07:51:18.291Z,2.25
2024-02-05T07:53:45.415Z,2.20
2024-02-05T07:56:12.521Z,1.90
2024-02-05T07:58:39.516Z,2.25
2024-02-05T08:01:06.789Z,1.42
2024-02-05T08:03:36.248Z,1.65
2024-02-05T08:06:05.751Z,1.95
2024-02-05T08:08:34.225Z,1.90
2024-02-05T08:11:01.231Z,2.33
2024-02-05T08:13:28.469Z,1.90
2024-02-05T08:15:55.554Z,2.35
2024-02-05T08:18:22.840Z,1.58
2024-02-05T08:20:50.902Z,2.15
2024-02-05T08:23:18.170Z,1.90
2024-02-05T08:25:46.524Z,2.58
2024-02-05T08:28:13.786Z,1.90
2024-02-05T08:30:41.404Z,1.92
2024-02-05T08:33:08.999Z,2.05
2024-02-05T08:35:36.389Z,1.50
2024-02-05T08:38:03.488Z,2.17
2024-02-05T08:40:31.746Z,1.95
2024-02-05T08:43:00.190Z,1.60
2024-02-05T08:45:28.284Z,1.75
2024-02-05T08:47:55.548Z,1.58
2024-02-05T08:50:23.975Z,2.30
2024-02-05T08:52:51.071Z,2.17
2024-02-05T08:55:18.581Z,2.20
2024-02-05T08:57:47.367Z,1.70
2024-02-05T09:00:18.745Z,2.22
2024-02-05T09:02:46.530Z,2.15
2024-02-05T09:05:13.687Z,3.00
2024-02-05T09:07:40.944Z,2.50
2024-02-05T09:10:08.990Z,1.73
2024-02-05T09:12:36.369Z,2.25
2024-02-05T09:15:05.064Z,1.92
2024-02-05T09:17:33.816Z,1.83
2024-02-05T09:20:01.208Z,1.77
2024-02-05T09:22:28.896Z,2.15
2024-02-05T09:24:56.389Z,1.88
2024-02-05T09:27:24.402Z,2.00
2024-02-05T09:29:51.550Z,1.67
2024-02-05T09:32:19.043Z,2.22
2024-02-05T09:34:47.551Z,1.83
2024-02-05T09:37:15.315Z,1.95
2024-02-05T09:39:42.473Z,2.47
2024-02-05T09:42:12.487Z,2.33
2024-02-05T09:44:40.486Z,2.30
2024-02-05T09:47:13.352Z,2.53
2024-02-05T09:49:40.832Z,1.73
2024-02-05T09:52:10.092Z,1.90
2024-02-05T09:54:41.794Z,2.08
2024-02-05T09:57:10.870Z,2.60
2024-02-05T09:59:38.223Z,1.88
2024-02-05T10:02:08.186Z,1.90
2024-02-05T10:04:41.603Z,2.10
2024-02-05T10:07:14.973Z,2.35
2024-02-05T10:09:43.475Z,2.08
2024-02-05T10:12:12.306Z,2.65
2024-02-05T10:14:42.080Z,1.90
2024-02-05T10:17:09.504Z,2.17
2024-02-05T10:19:37.207Z,2.38
2024-02-05T10:22:06.159Z,2.22
2024-02-05T10:24:39.202Z,2.97
2024-02-05T10:27:09.562Z,2.38
2024-02-05T10:29:36.736Z,2.10
2024-02-05T10:32:05.974Z,2.97
2024-02-05T10:34:33.384Z,1.98
2024-02-05T10:37:06.195Z,2.67
2024-02-05T10:39:35.250Z,2.63
2024-02-05T10:42:04.545Z,2.83
2024-02-05T10:44:38.193Z,2.35
2024-02-05T10:47:11.801Z,2.78
2024-02-05T10:49:39.932Z,2.80
2024-02-05T10:52:09.507Z,2.58
2024-02-05T10:54:41.341Z,3.03
2024-02-05T10:57:11.005Z,2.75
2024-02-05T10:59:38.337Z,2.50
2024-02-05T11:02:12.734Z,3.42
2024-02-05T11:04:40.393Z,2.63
2024-02-05T11:07:11.012Z,3.13
2024-02-05T11:09:40.780Z,3.40
2024-02-05T11:12:11.250Z,3.25
2024-02-05T11:17:12.524Z,2.80
2024-02-05T11:19:40.653Z,3.97
2024-02-05T11:22:09.328Z,3.10
2024-02-05T11:24:36.645Z,3.65
2024-02-05T11:27:07.541Z,2.85
2024-02-05T11:29:34.628Z,3.10
2024-02-05T11:32:03.435Z,3.15
2024-02-05T11:34:34.908Z,3.42
2024-02-05T11:37:08.003Z,3.38
2024-02-05T11:39:35.043Z,3.58
2024-02-05T11:42:10.148Z,3.22
2024-02-05T11:44:42.972Z,3.58
2024-02-05T11:47:12.302Z,3.33
2024-02-05T11:49:39.555Z,2.88
2024-02-05T11:52:07.375Z,3.45
2024-02-05T11:54:34.770Z,3.45
2024-02-05T11:57:02.164Z,3.55
2024-02-05T11:59:30.959Z,3.22
2024-02-05T12:01:59.405Z,3.60
2024-02-05T12:04:26.642Z,4.22
2024-02-05T12:06:54.725Z,3.97
2024-02-05T12:09:22.581Z,4.35
2024-02-05T12:11:50.007Z,3.90
2024-02-05T12:14:17.170Z,3.45
2024-02-05T12:16:45.627Z,4.60
2024-02-05T12:19:22.253Z,3.88
2024-02-05T12:21:50.025Z,4.78
2024-02-05T12:24:18.016Z,3.33
2024-02-05T12:26:45.216Z,3.38
2024-02-05T12:29:21.949Z,4.13
2024-02-05T12:31:53.088Z,3.13
2024-02-05T12:34:20.591Z,3.38
2024-02-05T12:36:48.586Z,4.40
2024-02-05T12:39:16.118Z,4.10
2024-02-05T12:41:44.424Z,3.60
2024-02-05T12:44:19.305Z,4.30
2024-02-05T12:46:51.923Z,4.35
2024-02-05T12:49:19.934Z,3.53
2024-02-05T12:51:48.674Z,3.63
2024-02-05T12:54:16.398Z,4.57
2024-02-05T12:56:43.992Z,3.60
2024-02-05T12:59:13.233Z,3.67
2024-02-05T13:01:40.785Z,3.88
2024-02-05T13:04:11.390Z,3.30
2024-02-05T13:06:38.729Z,3.50
2024-02-05T13:09:09.753Z,4.28
2024-02-05T13:11:37.020Z,3.92
2024-02-05T13:14:04.554Z,4.00
2024-02-05T13:16:32.060Z,3.45
2024-02-05T13:19:00.196Z,3.85
2024-02-05T13:21:29.226Z,3.92
2024-02-05T13:23:57.152Z,3.38
2024-02-05T13:26:24.432Z,4.40
2024-02-05T13:28:51.499Z,3.20
2024-02-05T13:31:20.802Z,3.50
2024-02-05T13:33:47.984Z,4.72
2024-02-05T13:36:15.270Z,3.85
2024-02-05T13:38:43.826Z,3.67
2024-02-05T13:41:11.018Z,3.78
2024-02-05T13:43:38.115Z,4.72
2024-02-05T13:46:05.545Z,4.72
2024-02-05T13:48:32.965Z,3.60
2024-02-05T13:51:02.526Z,4.05
2024-02-05T13:53:29.564Z,4.65
2024-02-05T13:55:58.701Z,3.80
2024-02-05T13:58:25.761Z,3.60
2024-02-05T14:00:53.130Z,4.07
2024-02-05T14:03:20.118Z,4.22
2024-02-05T14:05:47.881Z,3.90
2024-02-05T14:08:14.923Z,3.55
2024-02-05T14:10:42.517Z,3.45
2024-02-05T14:13:11.071Z,3.30
2024-02-05T14:15:38.247Z,4.00
2024-02-05T14:18:06.116Z,3.58
2024-02-05T14:20:33.391Z,4.63
2024-02-05T14:23:00.349Z,4.10
2024-02-05T14:25:27.490Z,4.15
2024-02-05T14:27:55.780Z,3.92
2024-02-05T14:30:24.955Z,3.90
2024-02-05T14:32:51.930Z,4.00
2024-02-05T14:35:19.337Z,4.05
2024-02-05T14:37:46.403Z,4.80
2024-02-05T14:40:13.514Z,3.70
2024-02-05T14:42:41.122Z,4.13
2024-02-05T14:45:09.195Z,4.03
2024-02-05T14:47:37.694Z,3.97
2024-02-05T14:50:06.944Z,4.00
2024-02-05T14:52:34.379Z,4.35
2024-02-05T14:55:02.823Z,5.00
2024-02-05T14:57:31.073Z,4.68
2024-02-05T14:59:58.202Z,4.22
2024-02-05T15:02:25.608Z,4.72
2024-02-05T15:04:54.121Z,3.72
2024-02-05T15:07:21.400Z,5.15
2024-02-05T15:09:48.855Z,3.63
2024-02-05T15:12:16.181Z,4.63
2024-02-05T15:14:43.189Z,4.40
2024-02-05T15:17:11.836Z,4.03
2024-02-05T15:19:39.366Z,3.65
2024-02-05T15:22:08.583Z,4.03
2024-02-05T15:24:37.807Z,4.00
2024-02-05T15:27:05.168Z,4.38
2024-02-05T15:29:32.322Z,3.35
2024-02-05T15:32:01.273Z,3.65
2024-02-05T15:34:28.571Z,3.28
2024-02-05T15:36:55.694Z,3.83
2024-02-05T15:39:24.170Z,3.42
2024-02-05T15:41:51.191Z,3.75
2024-02-05T15:44:20.178Z,4.88
2024-02-05T15:46:47.724Z,4.07
2024-02-05T15:49:14.896Z,4.40
2024-02-05T15:51:42.009Z,4.25
2024-02-05T15:54:09.030Z,4.15
2024-02-05T15:56:42.830Z,4.38
2024-02-05T15:59:11.058Z,3.88
2024-02-05T16:01:40.806Z,4.05
2024-02-05T16:04:09.337Z,4.05
2024-02-05T16:06:36.520Z,3.65
2024-02-05T16:09:03.669Z,4.15
2024-02-05T16:11:32.893Z,4.18
2024-02-05T16:14:01.397Z,3.72
2024-02-05T16:16:28.546Z,3.88
2024-02-05T16:19:00.393Z,3.90
2024-02-05T16:21:28.188Z,4.10
2024-02-05T16:23:55.143Z,3.60
2024-02-05T16:26:22.160Z,3.45
2024-02-05T16:28:49.573Z,4.38
2024-02-05T16:31:21.073Z,4.15
2024-02-05T16:33:50.569Z,3.58
2024-02-05T16:36:18.752Z,3.92
2024-02-05T16:38:47.481Z,4.05
2024-02-05T16:41:14.602Z,4.68
2024-02-05T16:43:41.767Z,3.85
2024-02-05T16:46:12.057Z,4.10
2024-02-05T16:48:42.473Z,4.15
2024-02-05T16:51:10.172Z,4.88
2024-02-05T16:53:37.897Z,3.65
2024-02-05T16:56:05.849Z,5.55
2024-02-05T16:58:32.969Z,4.03
2024-02-05T17:01:01.360Z,5.13
2024-02-05T17:03:28.934Z,4.45
2024-02-05T17:05:57.565Z,5.75
2024-02-05T17:08:25.099Z,4.47
2024-02-05T17:10:52.275Z,4.80
2024-02-05T17:13:19.462Z,4.80
2024-02-05T17:15:49.486Z,4.00
2024-02-05T17:18:17.550Z,4.80
2024-02-05T17:20:44.856Z,4.78
2024-02-05T17:23:13.561Z,4.80
2024-02-05T17:25:40.909Z,4.70
2024-02-05T17:28:08.112Z,5.05
2024-02-05T17:30:35.164Z,4.88
2024-02-05T17:33:03.457Z,4.50
2024-02-05T17:35:31.313Z,4.20
2024-02-05T17:37:58.522Z,4.85
2024-02-05T17:40:27.185Z,4.75
2024-02-05T17:42:54.908Z,4.72
2024-02-05T17:45:22.046Z,4.65
2024-02-05T17:47:49.398Z,4.63
2024-02-05T17:50:16.695Z,4.03
2024-02-05T17:52:50.144Z,3.83
2024-02-05T17:55:20.918Z,4.07
2024-02-05T17:57:50.098Z,3.97
2024-02-05T18:00:17.795Z,4.03
2024-02-05T18:02:44.905Z,3.83
2024-02-05T18:05:12.213Z,4.63
2024-02-05T18:07:39.419Z,5.00
2024-02-05T18:10:08.492Z,3.50
2024-02-05T18:12:35.540Z,4.68
2024-02-05T18:15:05.024Z,4.35
2024-02-05T18:17:32.018Z,3.85
2024-02-05T18:19:59.487Z,3.25
2024-02-05T18:22:26.679Z,3.50
2024-02-05T18:24:54.020Z,3.35
2024-02-05T18:27:21.933Z,3.70
2024-02-05T18:29:49.121Z,3.38
2024-02-05T18:32:17.636Z,2.92
2024-02-05T18:34:47.328Z,2.78
2024-02-05T18:37:15.711Z,3.65
2024-02-05T18:39:42.790Z,2.75
2024-02-05T18:42:09.869Z,2.67
2024-02-05T18:44:36.937Z,2.55
2024-02-05T18:47:04.644Z,2.78
2024-02-05T18:49:33.313Z,2.90
2024-02-05T18:52:03.155Z,2.40
2024-02-05T18:54:35.087Z,2.80
2024-02-05T18:57:02.230Z,3.00
2024-02-05T18:59:31.566Z,2.13
2024-02-05T19:01:58.758Z,2.97
2024-02-05T19:04:25.779Z,3.30
2024-02-05T19:06:54.737Z,2.72
2024-02-05T19:09:23.093Z,3.17
2024-02-05T19:11:51.260Z,2.40
2024-02-05T19:14:18.447Z,2.00
2024-02-05T19:16:47.269Z,2.22
2024-02-05T19:19:16.332Z,2.20
2024-02-05T19:21:43.576Z,3.47
2024-02-05T19:24:13.684Z,2.50
2024-02-05T19:26:41.187Z,2.75
2024-02-05T19:29:08.595Z,2.45
2024-02-05T19:31:36.352Z,2.45
2024-02-05T19:34:03.666Z,2.90
2024-02-05T19:36:30.918Z,1.90
2024-02-05T19:38:58.158Z,2.00
2024-02-05T19:41:26.600Z,2.05
2024-02-05T19:43:53.531Z,2.50
2024-02-05T19:46:20.663Z,2.42
2024-02-05T19:48:47.969Z,2.22
2024-02-05T19:51:16.453Z,2.20
2024-02-05T19:53:43.486Z,1.90
2024-02-05T19:56:10.597Z,1.85
2024-02-05T19:58:39.244Z,1.88
2024-02-05T20:01:06.440Z,1.70
2024-02-05T20:03:33.601Z,2.60
2024-02-05T20:06:00.609Z,1.50
2024-02-05T20:08:27.597Z,2.05
2024-02-05T20:10:54.684Z,1.90
2024-02-05T20:13:22.014Z,1.73
2024-02-05T20:15:50.699Z,1.50
2024-02-05T20:18:17.804Z,2.22
2024-02-05T20:20:45.021Z,1.90
2024-02-05T20:23:11.987Z,1.70
2024-02-05T20:25:39.571Z,2.25
2024-02-05T20:28:07.301Z,1.70
2024-02-05T20:30:34.780Z,1.80
2024-02-05T20:33:03.315Z,1.52
2024-02-05T20:35:30.509Z,2.03
2024-02-05T20:37:57.674Z,1.83
2024-02-05T20:40:24.907Z,1.77
2024-02-05T20:42:51.952Z,2.08
2024-02-05T20:45:19.881Z,1.88
2024-02-05T20:47:48.200Z,1.67
2024-02-05T20:50:17.197Z,1.85
2024-02-05T20:52:44.445Z,1.98
2024-02-05T20:55:11.723Z,1.63
2024-02-05T20:57:38.989Z,2.38
2024-02-05T21:00:08.505Z,2.35
2024-02-05T21:02:35.800Z,1.63
2024-02-05T21:05:04.566Z,1.48
2024-02-05T21:07:33.247Z,2.00
2024-02-05T21:10:01.137Z,2.33
2024-02-05T21:12:28.489Z,1.80
2024-02-05T21:14:55.473Z,1.92
2024-02-05T21:17:22.611Z,1.98
2024-02-05T21:19:49.929Z,1.75
2024-02-05T21:22:17.558Z,2.00
2024-02-05T21:24:45.983Z,2.00
2024-02-05T21:27:13.286Z,2.47
2024-02-05T21:29:41.633Z,1.45
2024-02-05T21:32:11.401Z,2.13
2024-02-05T21:34:39.744Z,1.92
2024-02-05T21:37:06.961Z,1.83
2024-02-05T21:39:34.188Z,2.33
2024-02-05T21:42:02.681Z,1.58
2024-02-05T21:44:29.757Z,1.80
2024-02-05T21:46:56.858Z,1.80
2024-02-05T21:49:24.105Z,1.45
2024-02-05T21:51:51.475Z,1.77
2024-02-05T21:54:18.689Z,1.80
2024-02-05T21:56:45.770Z,2.10
2024-02-05T21:59:14.285Z,2.00
2024-02-05T22:01:41.355Z,2.15
2024-02-05T22:04:08.569Z,2.33
2024-02-05T22:06:35.659Z,2.58
2024-02-05T22:09:02.999Z,2.20
2024-02-05T22:11:30.032Z,1.98
2024-02-05T22:13:57.394Z,1.83
2024-02-05T22:16:26.160Z,2.17
2024-02-05T22:18:53.327Z,1.95
2024-02-05T22:21:20.541Z,1.95
2024-02-05T22:23:48.011Z,2.08
2024-02-05T22:26:15.262Z,2.10
2024-02-05T22:28:42.515Z,1.73
2024-02-05T22:31:09.680Z,1.90
2024-02-05T22:33:38.543Z,2.00
2024-02-05T22:36:06.402Z,1.70
2024-02-05T22:38:33.926Z,1.70
2024-02-05T22:41:00.902Z,1.80
2024-02-05T22:43:28.780Z,2.25
2024-02-05T22:45:55.871Z,1.60
2024-02-05T22:48:23.316Z,2.08
2024-02-05T22:50:51.988Z,1.98
2024-02-05T22:53:19.719Z,2.03
2024-02-05T22:55:46.893Z,1.83
2024-02-05T22:58:14.007Z,2.10
2024-02-05T23:00:41.250Z,2.00
2024-02-05T23:03:08.321Z,1.90
2024-02-05T23:05:36.303Z,2.30
2024-02-05T23:08:06.779Z,1.77
2024-02-05T23:10:34.286Z,2.17
2024-02-05T23:13:01.665Z,1.73
2024-02-05T23:15:28.756Z,2.20
2024-02-05T23:17:56.276Z,2.15
2024-02-05T23:20:23.573Z,1.65
2024-02-05T23:22:50.552Z,2.05
2024-02-05T23:25:20.328Z,1.95
2024-02-05T23:27:48.600Z,2.10
2024-02-05T23:30:16.423Z,2.13
2024-02-05T23:32:43.752Z,2.08
2024-02-05T23:35:10.883Z,2.17
2024-02-05T23:37:38.384Z,1.88
2024-02-05T23:40:06.808Z,2.20
2024-02-05T23:42:35.528Z,1.90
2024-02-05T23:45:02.603Z,2.05
2024-02-05T23:47:29.882Z,1.58
2024-02-05T23:49:58.686Z,1.92
2024-02-05T23:52:25.874Z,1.63
2024-02-05T23:54:52.961Z,1.60
2024-02-05T23:57:21.572Z,1.63
2024-02-05T23:59:50.271Z,1.75
